Gunnison, CO

6:46 PM MDT on September 04, 2015 (GMT -0600)
West Ruby Ave Weather | | Change Station
CLOSE
Current Station
Personal Weather Station
Location: Gunnison, CO
Elevation: 7713 ft
Nearby Weather Stations

Elev 7713 ft 38.55 °N, 106.93 °W | Updated 0 second ago

Mostly Cloudy
Mostly Cloudy
59.7 °F
Feels Like 59.7 °F
N
4.0
Wind Variable Wind from SW
Gusts 16.0 mph

Today
High -- | Low -- °F
--% Chance of Precip.
Yesterday
High -- | Low -- °F
Precip. -- in
6:39 AM 7:33 PM
Waning Gibbous, 54% visible
Pressure 30.18 in
Visibility 10.0 miles
Clouds Few 4800 ft
Mostly Cloudy 6500 ft
Mostly Cloudy 7000 ft
Dew Point 48 °F
Humidity 64%
Rainfall 0.00 in
Snow Depth Not available.
UV 0.0 out of 12
Pollen 9.00 out of 12
Air Quality Not available.
Flu Activity Not available.
METAR KGUC 050035Z AUTO 23009G16KT 10SM VCTS FEW048 BKN065 BKN070 17/11 A3018 RMK AO1 LTG DSNT W TSB20
Pressure 30.18 in
Visibility 10.0 miles
Clouds Few 4800 ft
Mostly Cloudy 6500 ft
Mostly Cloudy 7000 ft
Dew Point 48 °F
Humidity 64%
Rainfall 0.00 in
Snow Depth Not available.
UV 0.0 out of 12
Pollen 9.00 out of 12
Air Quality Not available.
Flu Activity Not available.
METAR KGUC 050035Z AUTO 23009G16KT 10SM VCTS FEW048 BKN065 BKN070 17/11 A3018 RMK AO1 LTG DSNT W TSB20

10-Day Weather Forecast

×

Almanac

Astronomy

Sep. 04, 2015 Rise Set
Actual Time
Civil Twilight
Nautical Twilight
Astronomical Twilight
Moon
Length of Visible Light
Length of Day
Tomorrow will be .
, % of the Moon is Illuminated

Today's Extremes

State Highs State Lows

Community

WunderPhotos

Upload Photos

1,852,367 photos uploaded!

WunderBlogs® & News

Nearby

Air Quality

  Air Quality AQ Index Pollutant
Not available.

Snow Depth

Station Depth Elevation

Earthquake Activity

City Distance Mag. Time & Date
Minimum magnitude displayed is 2.5.

Coastal Water Temperatures

Place Temperature

Stations

Nearby Weather Stations

Station Location Temp. Windchill Dew Point Humidity Wind Precip. Elev Updated Type